createdAt,value
2019-02-20T00:00:22.411Z,6.90
2019-02-20T00:02:50.395Z,6.90
2019-02-20T00:05:18.341Z,6.90
2019-02-20T00:07:46.291Z,7.00
2019-02-20T00:10:14.779Z,7.00
2019-02-20T00:12:42.710Z,7.00
2019-02-20T00:15:10.761Z,6.90
2019-02-20T00:17:38.821Z,7.00
2019-02-20T00:20:06.778Z,6.90
2019-02-20T00:22:40.163Z,6.90
2019-02-20T00:25:04.824Z,6.90
2019-02-20T00:27:32.725Z,6.90
2019-02-20T00:30:00.620Z,6.90
2019-02-20T00:32:28.551Z,7.00
2019-02-20T00:34:56.533Z,7.00
2019-02-20T00:37:24.622Z,7.00
2019-02-20T00:39:52.499Z,7.10
2019-02-20T00:42:20.390Z,7.10
2019-02-20T00:45:07.568Z,7.10
2019-02-20T00:47:49.018Z,7.00
2019-02-20T00:50:17.709Z,7.10
2019-02-20T00:52:50.651Z,7.10
2019-02-20T00:55:18.675Z,7.10
2019-02-20T00:57:46.677Z,7.10
2019-02-20T01:00:16.075Z,7.10
2019-02-20T01:02:43.950Z,7.20
2019-02-20T01:05:11.954Z,7.30
2019-02-20T01:07:39.909Z,7.20
2019-02-20T01:10:07.931Z,7.20
2019-02-20T01:12:35.872Z,7.20
2019-02-20T01:15:04.274Z,7.20
2019-02-20T01:17:32.194Z,7.10
2019-02-20T01:20:00.327Z,7.10
2019-02-20T01:22:28.546Z,7.10
2019-02-20T01:24:56.480Z,7.10
2019-02-20T01:27:24.393Z,7.10
2019-02-20T01:29:52.345Z,7.10
2019-02-20T01:32:20.259Z,7.10
2019-02-20T01:34:48.187Z,7.10
2019-02-20T01:37:16.153Z,7.10
2019-02-20T01:39:44.112Z,7.10
2019-02-20T01:42:12.146Z,7.10
2019-02-20T01:44:40.037Z,7.10
2019-02-20T01:47:08.074Z,7.10
2019-02-20T01:49:36.023Z,7.10
2019-02-20T01:52:03.979Z,7.10
2019-02-20T01:54:31.928Z,7.00
2019-02-20T01:56:59.843Z,7.00
2019-02-20T01:59:27.711Z,7.00
2019-02-20T02:01:55.629Z,7.00
2019-02-20T02:04:23.634Z,7.10
2019-02-20T02:06:51.670Z,7.10
2019-02-20T02:09:19.581Z,7.00
2019-02-20T02:11:47.474Z,7.10
2019-02-20T02:14:15.428Z,7.10
2019-02-20T02:16:43.302Z,7.10
2019-02-20T02:19:11.287Z,7.10
2019-02-20T02:21:39.191Z,7.10
2019-02-20T02:24:07.119Z,7.10
2019-02-20T02:26:35.124Z,7.10
2019-02-20T02:29:03.068Z,7.20
2019-02-20T02:31:30.943Z,7.10
2019-02-20T02:33:58.930Z,7.10
2019-02-20T02:36:26.902Z,7.10
2019-02-20T02:38:54.866Z,7.10
2019-02-20T02:41:22.824Z,7.00
2019-02-20T02:43:50.887Z,7.00
2019-02-20T02:46:18.822Z,7.10
2019-02-20T02:48:46.777Z,7.10
2019-02-20T02:51:14.635Z,7.10
2019-02-20T02:53:42.555Z,7.10
2019-02-20T02:56:10.488Z,7.00
2019-02-20T02:58:38.438Z,7.00
2019-02-20T03:01:06.410Z,7.00
2019-02-20T03:03:34.356Z,6.90
2019-02-20T03:06:02.268Z,7.00
2019-02-20T03:08:33.591Z,6.90
2019-02-20T03:11:01.522Z,6.90
2019-02-20T03:13:29.452Z,6.80
2019-02-20T03:15:57.371Z,6.80
2019-02-20T03:18:25.417Z,6.80
2019-02-20T03:20:53.308Z,6.80
2019-02-20T03:23:21.394Z,6.90
2019-02-20T03:25:49.413Z,6.70
2019-02-20T03:28:17.315Z,6.70
2019-02-20T03:30:45.303Z,6.70
2019-02-20T03:33:13.262Z,6.70
2019-02-20T03:35:41.288Z,6.70
2019-02-20T03:38:09.360Z,6.70
2019-02-20T03:40:37.279Z,6.70
2019-02-20T03:43:05.172Z,6.70
2019-02-20T03:45:33.093Z,6.80
2019-02-20T03:48:01.050Z,6.80
2019-02-20T03:50:29.035Z,6.80
2019-02-20T03:52:56.929Z,6.70
2019-02-20T03:55:24.860Z,6.70
2019-02-20T03:57:52.877Z,6.80
2019-02-20T04:00:20.793Z,6.80
2019-02-20T04:02:48.733Z,6.80
2019-02-20T04:05:16.601Z,6.90
2019-02-20T04:07:44.479Z,6.80
2019-02-20T04:10:12.461Z,6.80
2019-02-20T04:12:40.371Z,6.90
2019-02-20T04:15:08.356Z,7.00
2019-02-20T04:17:36.219Z,7.00
2019-02-20T04:20:04.890Z,7.00
2019-02-20T04:22:32.823Z,7.00
2019-02-20T04:25:00.746Z,7.10
2019-02-20T04:27:28.808Z,7.00
2019-02-20T04:29:56.798Z,7.10
2019-02-20T04:32:24.664Z,7.10
2019-02-20T04:34:52.562Z,7.20
2019-02-20T04:37:20.461Z,7.20
2019-02-20T04:39:48.439Z,7.20
2019-02-20T04:42:16.387Z,7.30
2019-02-20T04:44:44.380Z,7.20
2019-02-20T04:47:12.276Z,7.20
2019-02-20T04:49:40.405Z,7.20
2019-02-20T04:52:08.332Z,7.30
2019-02-20T04:54:36.207Z,7.30
2019-02-20T04:57:04.117Z,7.30
2019-02-20T04:59:32.128Z,7.30
2019-02-20T05:02:00.100Z,7.40
2019-02-20T05:04:28.098Z,7.30
2019-02-20T05:06:56.035Z,7.30
2019-02-20T05:09:23.974Z,7.30
2019-02-20T05:11:51.855Z,7.30
2019-02-20T05:14:19.771Z,7.30
2019-02-20T05:16:47.663Z,7.40
2019-02-20T05:19:15.596Z,7.40
2019-02-20T05:21:43.582Z,7.40
2019-02-20T05:24:11.530Z,7.50
2019-02-20T05:26:39.431Z,7.50
2019-02-20T05:29:07.508Z,7.50
2019-02-20T05:31:35.450Z,7.40
2019-02-20T05:34:03.337Z,7.50
2019-02-20T05:36:31.349Z,7.50
2019-02-20T05:39:00.068Z,7.50
2019-02-20T05:41:28.015Z,7.40
2019-02-20T05:43:55.901Z,7.50
2019-02-20T05:46:23.781Z,7.50
2019-02-20T05:48:51.921Z,7.50
2019-02-20T05:51:19.942Z,7.50
2019-02-20T05:53:47.905Z,7.50
2019-02-20T05:56:16.021Z,7.50
2019-02-20T05:58:44.705Z,7.40
2019-02-20T06:01:14.593Z,7.40
2019-02-20T06:03:45.370Z,7.40
2019-02-20T06:06:22.532Z,7.50
2019-02-20T06:08:48.295Z,7.40
2019-02-20T06:11:16.238Z,7.50
2019-02-20T06:13:44.144Z,7.50
2019-02-20T06:16:12.304Z,7.60
2019-02-20T06:18:40.304Z,7.60
2019-02-20T06:21:08.332Z,7.60
2019-02-20T06:23:36.314Z,7.60
2019-02-20T06:26:04.321Z,7.60
2019-02-20T06:28:32.266Z,7.60
2019-02-20T06:31:00.225Z,7.60
2019-02-20T06:33:28.263Z,7.70
2019-02-20T06:35:56.178Z,7.70
2019-02-20T06:38:24.152Z,7.70
2019-02-20T06:40:52.404Z,7.70
2019-02-20T06:43:20.550Z,7.80
2019-02-20T06:45:48.470Z,7.80
2019-02-20T06:48:16.402Z,7.80
2019-02-20T06:50:47.051Z,7.80
2019-02-20T06:53:14.983Z,7.80
2019-02-20T06:55:42.875Z,7.80
2019-02-20T06:58:10.770Z,7.80
2019-02-20T07:00:38.752Z,7.90
2019-02-20T07:03:06.814Z,7.80
2019-02-20T07:05:35.611Z,7.70
2019-02-20T07:08:08.461Z,7.70
2019-02-20T07:10:48.001Z,7.70
2019-02-20T07:13:24.584Z,7.80
2019-02-20T07:16:11.579Z,7.70
2019-02-20T07:18:52.113Z,7.60
2019-02-20T07:21:35.301Z,7.70
2019-02-20T07:24:21.614Z,7.80
2019-02-20T07:27:12.819Z,7.70
2019-02-20T07:30:00.045Z,7.80
2019-02-20T07:32:28.104Z,7.80
2019-02-20T07:34:56.029Z,7.90
2019-02-20T07:37:23.984Z,7.80
2019-02-20T07:39:53.108Z,7.80
2019-02-20T07:42:21.895Z,7.80
2019-02-20T07:44:49.812Z,7.70
2019-02-20T07:47:18.146Z,7.70
2019-02-20T07:49:46.102Z,7.70
2019-02-20T07:52:14.110Z,7.70
2019-02-20T07:54:42.082Z,7.70
2019-02-20T07:57:10.119Z,7.70
2019-02-20T07:59:38.069Z,7.70
2019-02-20T08:02:09.371Z,7.70
2019-02-20T08:04:37.282Z,7.70
2019-02-20T08:07:05.389Z,7.70
2019-02-20T08:09:33.589Z,7.80
2019-02-20T08:12:01.680Z,7.70
2019-02-20T08:14:29.574Z,7.60
2019-02-20T08:16:57.713Z,7.60
2019-02-20T08:19:25.605Z,7.50
2019-02-20T08:21:53.588Z,7.50
2019-02-20T08:24:21.622Z,7.40
2019-02-20T08:26:49.581Z,7.40
2019-02-20T08:29:17.479Z,7.40
2019-02-20T08:31:45.435Z,7.40
2019-02-20T08:34:13.441Z,7.30
2019-02-20T08:36:41.405Z,7.40
2019-02-20T08:39:09.368Z,7.40
2019-02-20T08:41:37.313Z,7.40
2019-02-20T08:44:05.257Z,7.40
2019-02-20T08:46:33.304Z,7.50
2019-02-20T08:49:01.356Z,7.50
2019-02-20T08:51:29.325Z,7.50
2019-02-20T08:53:57.452Z,7.70
2019-02-20T08:56:25.498Z,7.80
2019-02-20T08:58:53.383Z,7.90
2019-02-20T09:01:21.287Z,8.00
2019-02-20T09:03:49.166Z,8.00
2019-02-20T09:06:17.113Z,8.20
2019-02-20T09:08:45.101Z,8.40
2019-02-20T09:11:13.074Z,8.50
2019-02-20T09:13:41.044Z,8.50
2019-02-20T09:16:09.000Z,8.60
2019-02-20T09:18:36.930Z,8.70
2019-02-20T09:21:04.873Z,8.80
2019-02-20T09:23:32.948Z,8.90
2019-02-20T09:26:00.940Z,8.90
2019-02-20T09:28:28.910Z,8.80
2019-02-20T09:30:56.916Z,8.80
2019-02-20T09:33:24.803Z,8.90
2019-02-20T09:35:52.841Z,8.90
2019-02-20T09:38:21.053Z,9.10
2019-02-20T09:40:48.978Z,9.20
2019-02-20T09:43:16.950Z,9.20
2019-02-20T09:45:44.992Z,9.20
2019-02-20T09:48:12.879Z,9.10
2019-02-20T09:50:40.748Z,9.20
2019-02-20T09:53:08.637Z,9.30
2019-02-20T09:55:36.551Z,9.20
2019-02-20T09:58:04.455Z,9.10
2019-02-20T10:00:32.357Z,9.10
2019-02-20T10:03:00.322Z,9.20
2019-02-20T10:05:28.369Z,9.30
2019-02-20T10:07:56.237Z,9.40
2019-02-20T10:10:24.175Z,9.40
2019-02-20T10:12:52.211Z,9.30
2019-02-20T10:15:20.231Z,9.40
2019-02-20T10:17:48.205Z,9.50
2019-02-20T10:20:16.178Z,9.80
2019-02-20T10:22:44.058Z,9.90
2019-02-20T10:25:12.127Z,10.00
2019-02-20T10:27:40.157Z,10.00
2019-02-20T10:30:09.757Z,10.10
2019-02-20T10:32:37.744Z,10.20
2019-02-20T10:35:06.063Z,10.30
2019-02-20T10:37:33.944Z,10.20
2019-02-20T10:40:01.956Z,10.00
2019-02-20T10:42:35.841Z,10.00
2019-02-20T10:45:04.138Z,10.00
2019-02-20T10:47:32.002Z,9.90
2019-02-20T10:49:59.935Z,10.00
2019-02-20T10:52:27.883Z,10.20
2019-02-20T10:54:57.772Z,10.30
2019-02-20T10:57:25.419Z,10.50
2019-02-20T10:59:53.309Z,10.60
2019-02-20T11:02:21.283Z,10.70
2019-02-20T11:04:50.180Z,10.80
2019-02-20T11:07:18.516Z,11.00
2019-02-20T11:09:46.415Z,11.00
2019-02-20T11:12:14.424Z,10.90
2019-02-20T11:14:42.415Z,11.00
2019-02-20T11:17:10.346Z,11.20
2019-02-20T11:19:38.393Z,11.30
2019-02-20T11:22:06.313Z,11.40
2019-02-20T11:24:34.212Z,11.60
2019-02-20T11:27:02.136Z,12.10
2019-02-20T11:29:30.059Z,12.50
2019-02-20T11:31:57.941Z,13.10
2019-02-20T11:34:25.949Z,13.10
2019-02-20T11:36:53.899Z,13.30
2019-02-20T11:39:21.836Z,13.20
2019-02-20T11:41:49.800Z,12.70
2019-02-20T11:44:21.016Z,12.40
2019-02-20T11:46:47.379Z,12.20
2019-02-20T11:49:15.257Z,12.30
2019-02-20T11:51:43.225Z,12.40
2019-02-20T11:54:11.173Z,12.40
2019-02-20T11:56:39.148Z,12.20
2019-02-20T11:59:07.063Z,11.70
2019-02-20T12:01:34.961Z,11.80
2019-02-20T12:04:02.920Z,11.80
2019-02-20T12:06:30.871Z,11.90
2019-02-20T12:08:58.852Z,11.80
2019-02-20T12:11:26.950Z,11.60
2019-02-20T12:13:55.022Z,11.30
2019-02-20T12:16:22.964Z,11.50
2019-02-20T12:18:51.003Z,11.30
2019-02-20T12:21:19.215Z,11.50
2019-02-20T12:23:47.148Z,12.10
2019-02-20T12:26:15.122Z,13.20
2019-02-20T12:28:43.123Z,13.80
2019-02-20T12:31:11.129Z,13.60
2019-02-20T12:33:39.199Z,13.50
2019-02-20T12:36:07.253Z,12.80
2019-02-20T12:38:37.101Z,12.60
2019-02-20T12:41:04.835Z,12.40
2019-02-20T12:43:32.784Z,12.30
2019-02-20T12:46:01.168Z,12.10
2019-02-20T12:48:29.063Z,12.50
2019-02-20T12:50:57.011Z,12.50
2019-02-20T12:53:24.923Z,12.50
2019-02-20T12:55:52.831Z,12.20
2019-02-20T12:58:20.720Z,12.00
2019-02-20T13:00:51.471Z,11.80
2019-02-20T13:03:20.328Z,11.80
2019-02-20T13:05:48.505Z,11.60
2019-02-20T13:08:16.526Z,11.60
2019-02-20T13:10:44.433Z,11.50
2019-02-20T13:13:12.324Z,11.60
2019-02-20T13:15:40.224Z,11.60
2019-02-20T13:18:08.327Z,11.60
2019-02-20T13:20:36.302Z,11.60
2019-02-20T13:23:04.297Z,11.80
2019-02-20T13:25:32.270Z,12.00
2019-02-20T13:28:00.299Z,12.00
2019-02-20T13:30:28.304Z,12.10
2019-02-20T13:32:56.298Z,11.70
2019-02-20T13:35:24.346Z,11.50
2019-02-20T13:37:52.389Z,11.50
2019-02-20T13:40:20.378Z,11.40
2019-02-20T13:42:48.395Z,11.40
2019-02-20T13:45:16.843Z,11.60
2019-02-20T13:47:44.927Z,11.70
2019-02-20T13:50:13.482Z,11.60
2019-02-20T13:52:41.921Z,11.60
2019-02-20T13:55:10.309Z,11.50
2019-02-20T13:57:38.347Z,11.40
2019-02-20T14:00:06.961Z,11.30
2019-02-20T14:02:34.973Z,11.30
2019-02-20T14:05:03.004Z,11.10
2019-02-20T14:07:31.076Z,10.90
2019-02-20T14:09:59.422Z,10.90
2019-02-20T14:12:27.549Z,10.80
2019-02-20T14:14:55.527Z,10.80
2019-02-20T14:17:26.617Z,10.70
2019-02-20T14:19:53.214Z,10.80
2019-02-20T14:22:21.210Z,10.90
2019-02-20T14:24:49.292Z,10.90
2019-02-20T14:27:17.532Z,11.00
2019-02-20T14:29:45.503Z,11.00
2019-02-20T14:32:13.465Z,10.90
2019-02-20T14:34:41.484Z,10.90
2019-02-20T14:37:09.443Z,10.90
2019-02-20T14:39:37.481Z,10.90
2019-02-20T14:42:05.452Z,10.80
2019-02-20T14:44:33.845Z,10.70
2019-02-20T14:47:01.856Z,10.80
2019-02-20T14:49:29.852Z,10.90
2019-02-20T14:51:57.864Z,10.90
2019-02-20T14:54:25.865Z,11.10
2019-02-20T14:56:53.805Z,11.10
2019-02-20T14:59:21.772Z,11.10
2019-02-20T15:01:50.189Z,11.20
2019-02-20T15:04:18.173Z,11.10
2019-02-20T15:06:46.164Z,11.00
2019-02-20T15:09:14.171Z,11.00
2019-02-20T15:11:42.253Z,11.00
2019-02-20T15:14:10.204Z,10.90
2019-02-20T15:16:38.299Z,11.00
2019-02-20T15:19:06.607Z,11.00
2019-02-20T15:21:34.670Z,11.00
2019-02-20T15:24:02.727Z,11.00
2019-02-20T15:26:30.744Z,11.00
2019-02-20T15:28:58.762Z,11.00
2019-02-20T15:31:33.562Z,10.90
2019-02-20T15:33:56.577Z,10.90
2019-02-20T15:36:26.278Z,11.00
2019-02-20T15:38:55.556Z,10.90
2019-02-20T15:41:23.596Z,10.80
2019-02-20T15:43:51.811Z,10.80
2019-02-20T15:46:19.792Z,10.80
2019-02-20T15:48:47.972Z,10.80
2019-02-20T15:51:16.242Z,10.80
2019-02-20T15:53:44.861Z,10.80
2019-02-20T15:56:12.993Z,10.70
2019-02-20T15:58:40.981Z,10.70
2019-02-20T16:01:09.416Z,10.70
2019-02-20T16:03:37.563Z,10.70
2019-02-20T16:06:05.630Z,10.70
2019-02-20T16:08:33.601Z,10.70
2019-02-20T16:11:02.133Z,10.80
2019-02-20T16:13:30.275Z,10.80
2019-02-20T16:15:58.586Z,10.80
2019-02-20T16:18:26.530Z,10.60
2019-02-20T16:20:54.595Z,10.60
2019-02-20T16:23:24.287Z,10.50
2019-02-20T16:25:52.452Z,10.50
2019-02-20T16:28:20.720Z,10.50
2019-02-20T16:30:48.789Z,10.50
2019-02-20T16:33:16.997Z,10.50
2019-02-20T16:35:45.043Z,10.50
2019-02-20T16:38:13.166Z,10.50
2019-02-20T16:40:42.568Z,10.40
2019-02-20T16:43:10.677Z,10.30
2019-02-20T16:45:38.827Z,10.40
2019-02-20T16:48:06.953Z,10.30
2019-02-20T16:50:35.067Z,10.40
2019-02-20T16:53:03.085Z,10.30
2019-02-20T16:55:31.393Z,10.40
2019-02-20T16:57:59.391Z,10.30
2019-02-20T17:00:27.460Z,10.30
2019-02-20T17:02:55.644Z,10.30
2019-02-20T17:05:23.830Z,10.40
2019-02-20T17:07:52.345Z,10.40
2019-02-20T17:10:20.586Z,10.30
2019-02-20T17:12:48.694Z,10.30
2019-02-20T17:15:16.714Z,10.30
2019-02-20T17:17:44.933Z,10.30
2019-02-20T17:20:13.395Z,10.30
2019-02-20T17:22:41.543Z,10.30
2019-02-20T17:25:10.137Z,10.30
2019-02-20T17:27:38.324Z,10.20
2019-02-20T17:30:07.550Z,10.20
2019-02-20T17:32:39.005Z,10.20
2019-02-20T17:35:08.062Z,10.20
2019-02-20T17:37:36.833Z,10.10
2019-02-20T17:40:06.528Z,10.10
2019-02-20T17:42:34.796Z,10.20
2019-02-20T17:45:03.537Z,10.10
2019-02-20T17:47:31.531Z,10.10
2019-02-20T17:49:59.843Z,10.10
2019-02-20T17:52:28.297Z,10.10
2019-02-20T17:54:56.355Z,10.10
2019-02-20T17:57:24.327Z,10.20
2019-02-20T17:59:52.308Z,10.10
2019-02-20T18:02:20.260Z,10.10
2019-02-20T18:04:49.858Z,10.10
2019-02-20T18:07:18.267Z,10.00
2019-02-20T18:09:46.447Z,10.10
2019-02-20T18:12:14.695Z,10.00
2019-02-20T18:14:42.737Z,10.10
2019-02-20T18:17:10.925Z,10.10
2019-02-20T18:19:39.431Z,10.10
2019-02-20T18:22:07.368Z,10.00
2019-02-20T18:24:35.882Z,9.90
2019-02-20T18:27:04.466Z,10.00
2019-02-20T18:29:32.638Z,10.10
2019-02-20T18:32:01.104Z,10.10
2019-02-20T18:34:29.200Z,10.10
2019-02-20T18:36:57.299Z,10.10
2019-02-20T18:39:25.471Z,10.20
2019-02-20T18:41:53.515Z,10.10
2019-02-20T18:44:21.792Z,10.10
2019-02-20T18:46:49.719Z,10.00
2019-02-20T18:49:17.696Z,10.00
2019-02-20T18:51:45.925Z,10.10
2019-02-20T18:54:14.144Z,10.10
2019-02-20T18:56:42.217Z,10.10
2019-02-20T18:59:10.223Z,10.00
2019-02-20T19:01:38.196Z,9.80
2019-02-20T19:04:08.125Z,9.80
2019-02-20T19:06:36.187Z,9.90
2019-02-20T19:09:07.536Z,9.90
2019-02-20T19:11:37.727Z,9.90
2019-02-20T19:14:24.983Z,9.90
2019-02-20T19:17:14.974Z,9.90
2019-02-20T19:19:47.367Z,9.80
2019-02-20T19:22:37.417Z,9.90
2019-02-20T19:25:19.391Z,9.80
2019-02-20T19:28:04.802Z,9.80
2019-02-20T19:30:40.138Z,9.70
2019-02-20T19:33:16.235Z,9.70
2019-02-20T19:36:03.448Z,9.70
2019-02-20T19:38:50.232Z,9.70
2019-02-20T19:41:31.704Z,9.70
2019-02-20T19:44:18.195Z,9.70
2019-02-20T19:47:08.493Z,9.70
2019-02-20T19:49:54.666Z,9.60
2019-02-20T19:52:48.280Z,9.50
2019-02-20T19:55:38.595Z,9.60
2019-02-20T19:58:13.400Z,9.60
2019-02-20T20:00:59.220Z,9.60
2019-02-20T20:03:45.313Z,9.50
2019-02-20T20:06:31.330Z,9.50
2019-02-20T20:09:04.462Z,9.50
2019-02-20T20:12:10.233Z,9.50
2019-02-20T20:15:06.562Z,9.50
2019-02-20T20:17:45.916Z,9.60
2019-02-20T20:20:19.778Z,9.50
2019-02-20T20:22:57.838Z,9.50
2019-02-20T20:25:51.377Z,9.50
2019-02-20T20:28:28.920Z,9.40
2019-02-20T20:31:15.247Z,9.40
2019-02-20T20:34:01.104Z,9.30
2019-02-20T20:37:00.698Z,9.30
2019-02-20T20:39:46.557Z,9.30
2019-02-20T20:42:24.508Z,9.30
2019-02-20T20:45:02.726Z,9.30
2019-02-20T20:47:37.795Z,9.30
2019-02-20T20:50:23.891Z,9.40
2019-02-20T20:53:00.855Z,9.40
2019-02-20T20:55:36.999Z,9.30
2019-02-20T20:58:23.124Z,9.50
2019-02-20T21:01:09.354Z,9.40
2019-02-20T21:03:39.133Z,9.40
2019-02-20T21:06:29.273Z,9.40
2019-02-20T21:09:22.537Z,9.40
2019-02-20T21:12:12.881Z,9.20
2019-02-20T21:14:53.107Z,9.30
2019-02-20T21:17:40.575Z,9.20
2019-02-20T21:20:26.855Z,9.20
2019-02-20T21:23:07.531Z,9.20
2019-02-20T21:25:54.709Z,9.20
2019-02-20T21:28:41.874Z,9.30
2019-02-20T21:31:20.537Z,9.40
2019-02-20T21:34:11.198Z,9.30
2019-02-20T21:36:45.375Z,9.30
2019-02-20T21:39:32.523Z,9.30
2019-02-20T21:42:04.418Z,9.30
2019-02-20T21:45:04.030Z,9.30
2019-02-20T21:47:44.626Z,9.30
2019-02-20T21:50:19.404Z,9.30
2019-02-20T21:53:09.096Z,9.10
2019-02-20T21:55:59.303Z,9.20
2019-02-20T21:58:49.606Z,9.00
2019-02-20T22:01:51.920Z,9.10
2019-02-20T22:04:32.124Z,9.10
2019-02-20T22:07:14.434Z,8.90
2019-02-20T22:10:13.498Z,8.80
2019-02-20T22:12:50.792Z,8.90
2019-02-20T22:15:32.551Z,8.90
2019-02-20T22:18:19.651Z,8.90
2019-02-20T22:21:05.251Z,8.90
2019-02-20T22:23:50.806Z,8.90
2019-02-20T22:26:41.747Z,8.80
2019-02-20T22:29:31.939Z,8.70
2019-02-20T22:32:10.336Z,8.70
2019-02-20T22:34:41.471Z,8.60
2019-02-20T22:37:30.535Z,8.70
2019-02-20T22:40:06.480Z,8.70
2019-02-20T22:42:53.103Z,8.70
2019-02-20T22:45:40.266Z,8.60
2019-02-20T22:48:10.696Z,8.60
2019-02-20T22:50:58.626Z,8.60
2019-02-20T22:53:30.891Z,8.60
2019-02-20T22:56:13.565Z,8.60
2019-02-20T22:59:06.817Z,8.60
2019-02-20T23:01:43.520Z,8.60
2019-02-20T23:04:29.312Z,8.60
2019-02-20T23:07:22.630Z,8.70
2019-02-20T23:10:08.529Z,8.60
2019-02-20T23:12:49.116Z,8.60
2019-02-20T23:15:17.031Z,8.60
2019-02-20T23:17:45.035Z,8.60
2019-02-20T23:20:12.962Z,8.70
2019-02-20T23:22:40.896Z,8.70
2019-02-20T23:25:08.855Z,8.70
2019-02-20T23:27:36.748Z,8.70
2019-02-20T23:30:12.518Z,8.60
2019-02-20T23:32:35.042Z,8.70
2019-02-20T23:35:03.021Z,8.80
2019-02-20T23:37:30.952Z,8.70
2019-02-20T23:39:58.811Z,8.70
2019-02-20T23:42:26.751Z,8.70
2019-02-20T23:44:54.730Z,8.70
2019-02-20T23:47:22.670Z,8.70
2019-02-20T23:49:50.614Z,8.60
2019-02-20T23:52:18.470Z,8.60
2019-02-20T23:54:46.397Z,8.70
2019-02-20T23:57:14.387Z,8.60
2019-02-20T23:59:42.285Z,8.60
